createdAt,value
2023-01-08T00:02:04.169Z,99636.41
2023-01-08T00:04:30.724Z,99631.09
2023-01-08T00:06:57.328Z,99620.41
2023-01-08T00:09:23.954Z,99626.41
2023-01-08T00:11:50.507Z,99621.88
2023-01-08T00:14:17.054Z,99608.03
2023-01-08T00:16:43.675Z,99601.66
2023-01-08T00:19:12.423Z,99597.31
2023-01-08T00:21:39.603Z,99584.09
2023-01-08T00:24:06.531Z,99583.41
2023-01-08T00:26:33.099Z,99581.81
2023-01-08T00:28:59.606Z,99584.94
2023-01-08T00:31:26.278Z,99580.72
2023-01-08T00:33:52.883Z,99587.25
2023-01-08T00:36:20.012Z,99585.44
2023-01-08T00:38:47.357Z,99588.44
2023-01-08T00:41:15.729Z,99580.03
2023-01-08T00:43:42.409Z,99587.34
2023-01-08T00:46:09.130Z,99586.00
2023-01-08T00:48:38.529Z,99585.69
2023-01-08T00:51:07.403Z,99585.69
2023-01-08T00:53:34.081Z,99584.22
2023-01-08T00:56:07.172Z,99574.38
2023-01-08T00:58:34.185Z,99577.16
2023-01-08T01:01:01.152Z,99573.88
2023-01-08T01:03:28.059Z,99570.91
2023-01-08T01:06:04.731Z,99563.31
2023-01-08T01:08:31.633Z,99573.28
2023-01-08T01:10:58.194Z,99559.94
2023-01-08T01:13:25.137Z,99555.63
2023-01-08T01:15:59.081Z,99555.03
2023-01-08T01:18:25.946Z,99559.09
2023-01-08T01:20:52.497Z,99574.63
2023-01-08T01:23:19.159Z,99557.38
2023-01-08T01:25:45.971Z,99560.25
2023-01-08T01:28:12.757Z,99561.31
2023-01-08T01:30:39.331Z,99568.72
2023-01-08T01:33:05.976Z,99564.13
2023-01-08T01:35:32.484Z,99577.06
2023-01-08T01:37:59.095Z,99558.56
2023-01-08T01:40:25.669Z,99549.66
2023-01-08T01:42:52.256Z,99569.81
2023-01-08T01:45:27.680Z,99575.56
2023-01-08T01:48:02.154Z,99580.56
2023-01-08T01:50:40.154Z,99566.78
2023-01-08T01:53:17.296Z,99561.34
2023-01-08T01:55:45.678Z,99565.34
2023-01-08T01:58:24.590Z,99554.66
2023-01-08T02:00:53.428Z,99561.50
2023-01-08T02:03:23.394Z,99560.91
2023-01-08T02:06:00.137Z,99563.09
2023-01-08T02:08:45.609Z,99568.09
2023-01-08T02:12:17.203Z,99560.03
2023-01-08T02:14:54.868Z,99554.41
2023-01-08T02:17:39.444Z,99565.63
2023-01-08T02:20:14.284Z,99546.84
2023-01-08T02:23:08.685Z,99548.41
2023-01-08T02:25:40.878Z,99549.50
2023-01-08T02:28:11.888Z,99546.13
2023-01-08T02:30:38.695Z,99548.19
2023-01-08T02:33:05.280Z,99532.94
2023-01-08T02:35:44.225Z,99542.19
2023-01-08T02:38:14.345Z,99526.66
2023-01-08T02:40:56.736Z,99520.16
2023-01-08T02:43:35.340Z,99516.09
2023-01-08T02:46:03.135Z,99511.06
2023-01-08T02:48:46.025Z,99511.91
2023-01-08T02:51:22.057Z,99506.38
2023-01-08T02:53:54.115Z,99506.47
2023-01-08T02:56:28.615Z,99496.38
2023-01-08T02:58:57.623Z,99500.47
2023-01-08T03:01:25.956Z,99492.53
2023-01-08T03:03:56.987Z,99476.47
2023-01-08T03:06:25.834Z,99467.09
2023-01-08T03:08:53.847Z,99472.69
2023-01-08T03:11:23.039Z,99462.00
2023-01-08T03:14:14.437Z,99459.63
2023-01-08T03:17:26.166Z,99461.75
2023-01-08T03:20:00.584Z,99460.25
2023-01-08T03:22:28.331Z,99452.19
2023-01-08T03:24:58.817Z,99459.16
2023-01-08T03:27:29.455Z,99447.41
2023-01-08T03:29:59.185Z,99454.19
2023-01-08T03:32:28.621Z,99441.28
2023-01-08T03:34:57.626Z,99447.16
2023-01-08T03:37:29.357Z,99444.44
2023-01-08T03:40:04.761Z,99443.47
2023-01-08T03:42:32.531Z,99455.56
2023-01-08T03:45:00.403Z,99447.16
2023-01-08T03:47:30.555Z,99430.94
2023-01-08T03:50:01.685Z,99435.88
2023-01-08T03:52:30.789Z,99441.38
2023-01-08T03:54:57.441Z,99439.72
2023-01-08T03:57:24.235Z,99444.41
2023-01-08T03:59:50.848Z,99444.81
2023-01-08T04:02:17.726Z,99438.63
2023-01-08T04:04:44.623Z,99442.03
2023-01-08T04:07:12.433Z,99433.47
2023-01-08T04:09:39.109Z,99425.91
2023-01-08T04:12:05.942Z,99415.00
2023-01-08T04:14:32.537Z,99420.19
2023-01-08T04:16:59.175Z,99421.97
2023-01-08T04:19:25.678Z,99425.38
2023-01-08T04:21:52.748Z,99423.84
2023-01-08T04:24:19.585Z,99427.22
2023-01-08T04:26:46.368Z,99433.09
2023-01-08T04:29:14.200Z,99426.63
2023-01-08T04:31:41.343Z,99415.34
2023-01-08T04:34:07.953Z,99419.28
2023-01-08T04:36:34.577Z,99416.16
2023-01-08T04:39:01.296Z,99416.06
2023-01-08T04:41:27.901Z,99412.03
2023-01-08T04:43:54.413Z,99413.69
2023-01-08T04:46:21.172Z,99399.75
2023-01-08T04:48:47.723Z,99403.09
2023-01-08T04:51:14.296Z,99391.22
2023-01-08T04:53:41.370Z,99401.06
2023-01-08T04:56:10.185Z,99400.28
2023-01-08T04:58:37.785Z,99390.25
2023-01-08T05:01:16.783Z,99392.22
2023-01-08T05:03:43.381Z,99390.28
2023-01-08T05:06:10.026Z,99383.94
2023-01-08T05:08:36.689Z,99382.97
2023-01-08T05:11:03.273Z,99381.16
2023-01-08T05:13:30.277Z,99378.41
2023-01-08T05:16:00.461Z,99379.25
2023-01-08T05:18:28.251Z,99377.31
2023-01-08T05:20:55.177Z,99386.47
2023-01-08T05:23:21.880Z,99382.47
2023-01-08T05:25:48.447Z,99384.91
2023-01-08T05:28:15.046Z,99391.50
2023-01-08T05:30:41.677Z,99393.75
2023-01-08T05:33:08.310Z,99378.19
2023-01-08T05:35:34.820Z,99390.16
2023-01-08T05:38:01.464Z,99376.47
2023-01-08T05:40:27.993Z,99374.66
2023-01-08T05:42:54.634Z,99368.91
2023-01-08T05:45:21.233Z,99375.41
2023-01-08T05:47:47.890Z,99365.22
2023-01-08T05:50:14.573Z,99372.06
2023-01-08T05:52:41.282Z,99373.38
2023-01-08T05:55:08.160Z,99379.34
2023-01-08T05:57:34.783Z,99369.28
2023-01-08T06:00:01.424Z,99368.41
2023-01-08T06:02:38.191Z,99368.19
2023-01-08T06:05:05.297Z,99368.66
2023-01-08T06:07:31.940Z,99368.91
2023-01-08T06:09:58.570Z,99376.34
2023-01-08T06:12:25.184Z,99385.72
2023-01-08T06:14:51.683Z,99380.19
2023-01-08T06:17:18.260Z,99377.19
2023-01-08T06:19:46.482Z,99371.31
2023-01-08T06:22:13.126Z,99377.31
2023-01-08T06:24:39.612Z,99374.38
2023-01-08T06:27:06.178Z,99382.72
2023-01-08T06:29:32.664Z,99385.09
2023-01-08T06:31:59.205Z,99383.22
2023-01-08T06:34:25.763Z,99371.97
2023-01-08T06:36:52.297Z,99374.50
2023-01-08T06:39:18.874Z,99379.81
2023-01-08T06:41:45.556Z,99378.97
2023-01-08T06:44:12.578Z,99388.09
2023-01-08T06:46:40.408Z,99380.16
2023-01-08T06:49:07.443Z,99391.22
2023-01-08T06:51:34.095Z,99386.69
2023-01-08T06:54:00.603Z,99391.25
2023-01-08T06:56:27.288Z,99388.59
2023-01-08T06:58:54.015Z,99405.16
2023-01-08T07:01:22.770Z,99399.66
2023-01-08T07:03:49.375Z,99416.91
2023-01-08T07:06:18.803Z,99412.03
2023-01-08T07:08:46.330Z,99427.13
2023-01-08T07:11:13.769Z,99426.13
2023-01-08T07:13:40.323Z,99436.88
2023-01-08T07:16:13.261Z,99433.16
2023-01-08T07:18:40.247Z,99429.97
2023-01-08T07:21:08.435Z,99438.09
2023-01-08T07:23:36.357Z,99439.91
2023-01-08T07:26:04.837Z,99441.94
2023-01-08T07:28:31.436Z,99434.41
2023-01-08T07:30:58.077Z,99434.41
2023-01-08T07:33:24.701Z,99438.59
2023-01-08T07:35:55.767Z,99440.81
2023-01-08T07:38:23.111Z,99441.81
2023-01-08T07:40:49.698Z,99448.56
2023-01-08T07:43:16.362Z,99445.69
2023-01-08T07:45:43.152Z,99438.22
2023-01-08T07:48:19.156Z,99435.63
2023-01-08T07:50:45.846Z,99439.91
2023-01-08T07:53:13.879Z,99440.06
2023-01-08T07:55:40.446Z,99444.13
2023-01-08T07:58:14.414Z,99438.03
2023-01-08T08:00:41.871Z,99432.28
2023-01-08T08:03:11.538Z,99446.97
2023-01-08T08:05:38.651Z,99441.38
2023-01-08T08:08:09.815Z,99438.69
2023-01-08T08:10:36.794Z,99435.91
2023-01-08T08:13:03.562Z,99438.75
2023-01-08T08:15:30.356Z,99438.75
2023-01-08T08:17:56.908Z,99435.97
2023-01-08T08:20:23.525Z,99431.09
2023-01-08T08:22:50.172Z,99416.78
2023-01-08T08:25:16.955Z,99418.00
2023-01-08T08:27:44.182Z,99416.59
2023-01-08T08:30:12.138Z,99413.06
2023-01-08T08:32:38.738Z,99418.63
2023-01-08T08:35:05.920Z,99425.31
2023-01-08T08:37:32.682Z,99421.94
2023-01-08T08:39:59.399Z,99426.63
2023-01-08T08:42:26.054Z,99429.25
2023-01-08T08:44:52.703Z,99417.19
2023-01-08T08:47:19.389Z,99416.19
2023-01-08T08:49:45.959Z,99414.06
2023-01-08T08:52:12.513Z,99412.06
2023-01-08T08:54:41.416Z,99410.78
2023-01-08T08:57:11.390Z,99413.59
2023-01-08T08:59:38.134Z,99410.53
2023-01-08T09:02:05.371Z,99406.06
2023-01-08T09:04:34.069Z,99414.72
2023-01-08T09:07:01.175Z,99404.44
2023-01-08T09:09:28.407Z,99407.63
2023-01-08T09:11:56.117Z,99394.59
2023-01-08T09:14:22.860Z,99396.09
2023-01-08T09:16:49.581Z,99407.03
2023-01-08T09:19:16.246Z,99401.16
2023-01-08T09:21:42.882Z,99401.91
2023-01-08T09:24:09.773Z,99405.41
2023-01-08T09:26:36.369Z,99398.56
2023-01-08T09:29:03.692Z,99403.00
2023-01-08T09:31:30.194Z,99398.78
2023-01-08T09:33:56.774Z,99392.81
2023-01-08T09:36:23.218Z,99392.69
2023-01-08T09:38:49.968Z,99388.78
2023-01-08T09:41:27.147Z,99381.41
2023-01-08T09:43:56.259Z,99389.22
2023-01-08T09:46:27.272Z,99382.97
2023-01-08T09:48:59.131Z,99378.50
2023-01-08T09:51:38.463Z,99383.59
2023-01-08T09:54:07.476Z,99383.94
2023-01-08T09:56:35.538Z,99381.19
2023-01-08T09:59:04.421Z,99374.81
2023-01-08T10:01:38.887Z,99373.00
2023-01-08T10:04:17.897Z,99385.13
2023-01-08T10:07:21.801Z,99373.25
2023-01-08T10:09:50.121Z,99366.75
2023-01-08T10:12:30.808Z,99364.00
2023-01-08T10:15:01.977Z,99371.09
2023-01-08T10:17:34.441Z,99357.50
2023-01-08T10:20:01.271Z,99360.00
2023-01-08T10:22:32.394Z,99357.03
2023-01-08T10:25:08.871Z,99349.56
2023-01-08T10:28:05.124Z,99348.16
2023-01-08T10:30:35.845Z,99339.66
2023-01-08T10:33:06.088Z,99340.00
2023-01-08T10:35:39.432Z,99336.38
2023-01-08T10:38:06.713Z,99332.34
2023-01-08T10:40:49.447Z,99336.59
2023-01-08T10:43:24.022Z,99330.91
2023-01-08T10:45:56.407Z,99329.00
2023-01-08T10:48:29.181Z,99333.78
2023-01-08T10:51:14.096Z,99316.69
2023-01-08T10:53:41.466Z,99310.13
2023-01-08T10:56:22.697Z,99315.66
2023-01-08T10:58:50.364Z,99306.44
2023-01-08T11:01:22.949Z,99301.47
2023-01-08T11:04:06.787Z,99300.00
2023-01-08T11:06:37.750Z,99293.22
2023-01-08T11:09:19.237Z,99292.03
2023-01-08T11:11:45.821Z,99285.19
2023-01-08T11:14:22.620Z,99278.72
2023-01-08T11:16:50.272Z,99274.03
2023-01-08T11:19:29.577Z,99272.88
2023-01-08T11:22:05.381Z,99269.97
2023-01-08T11:24:35.069Z,99267.97
2023-01-08T11:27:22.297Z,99266.50
2023-01-08T11:30:12.933Z,99257.81
2023-01-08T11:32:51.502Z,99251.44
2023-01-08T11:35:31.986Z,99249.41
2023-01-08T11:38:01.741Z,99234.69
2023-01-08T11:40:31.522Z,99235.06
2023-01-08T11:43:11.204Z,99236.31
2023-01-08T11:45:53.644Z,99236.19
2023-01-08T11:48:48.325Z,99224.47
2023-01-08T11:51:33.730Z,99216.72
2023-01-08T11:54:07.255Z,99205.81
2023-01-08T11:57:08.568Z,99204.22
2023-01-08T12:00:09.027Z,99205.94
2023-01-08T12:02:54.586Z,99197.91
2023-01-08T12:05:46.489Z,99191.06
2023-01-08T12:08:45.575Z,99189.53
2023-01-08T12:11:24.303Z,99180.78
2023-01-08T12:14:07.831Z,99183.34
2023-01-08T12:16:58.473Z,99163.63
2023-01-08T12:19:40.235Z,99171.94
2023-01-08T12:22:30.149Z,99168.13
2023-01-08T12:25:12.060Z,99167.06
2023-01-08T12:27:58.242Z,99162.47
2023-01-08T12:30:40.241Z,99149.75
2023-01-08T12:33:29.637Z,99146.44
2023-01-08T12:36:00.026Z,99141.03
2023-01-08T12:38:52.810Z,99151.53
2023-01-08T12:41:19.488Z,99161.88
2023-01-08T12:43:59.059Z,99237.69
2023-01-08T12:46:30.352Z,99223.28
2023-01-08T12:48:57.772Z,99220.19
2023-01-08T12:52:11.751Z,99200.25
2023-01-08T12:54:55.381Z,99194.69
2023-01-08T12:57:32.883Z,99181.78
2023-01-08T13:00:07.553Z,99169.06
2023-01-08T13:03:03.788Z,99163.31
2023-01-08T13:05:37.188Z,99166.38
2023-01-08T13:08:21.998Z,99161.44
2023-01-08T13:10:55.274Z,99159.22
2023-01-08T13:13:32.371Z,99160.94
2023-01-08T13:16:18.734Z,99151.94
2023-01-08T13:18:59.527Z,99158.78
2023-01-08T13:21:34.237Z,99158.09
2023-01-08T13:24:03.944Z,99155.41
2023-01-08T13:26:33.580Z,99152.13
2023-01-08T13:29:22.065Z,99160.34
2023-01-08T13:31:48.760Z,99152.28
2023-01-08T13:34:21.955Z,99148.19
2023-01-08T13:36:57.643Z,99141.16
2023-01-08T13:39:31.546Z,99137.25
2023-01-08T13:42:22.146Z,99133.84
2023-01-08T13:44:51.739Z,99129.47
2023-01-08T13:47:33.507Z,99125.88
2023-01-08T13:50:04.422Z,99124.75
2023-01-08T13:52:48.957Z,99122.63
2023-01-08T13:55:35.349Z,99121.94
2023-01-08T13:58:16.542Z,99108.75
2023-01-08T14:00:43.191Z,99105.38
2023-01-08T14:03:26.296Z,99112.94
2023-01-08T14:06:05.233Z,99113.66
2023-01-08T14:08:31.799Z,99103.34
2023-01-08T14:10:58.604Z,99096.22
2023-01-08T14:13:31.078Z,99098.00
2023-01-08T14:16:03.613Z,99091.19
2023-01-08T14:18:30.442Z,99092.94
2023-01-08T14:20:57.657Z,99095.81
2023-01-08T14:23:28.679Z,99089.59
2023-01-08T14:25:56.180Z,99087.94
2023-01-08T14:28:23.501Z,99091.22
2023-01-08T14:30:56.778Z,99083.50
2023-01-08T14:33:35.695Z,99090.75
2023-01-08T14:36:06.103Z,99089.56
2023-01-08T14:38:32.938Z,99081.78
2023-01-08T14:41:09.412Z,99075.94
2023-01-08T14:43:41.870Z,99076.91
2023-01-08T14:46:29.064Z,99066.13
2023-01-08T14:48:57.038Z,99074.16
2023-01-08T14:51:27.039Z,99075.69
2023-01-08T14:54:01.915Z,99058.19
2023-01-08T14:56:36.065Z,99050.69
2023-01-08T14:59:12.269Z,99058.00
2023-01-08T15:01:39.223Z,99058.53
2023-01-08T15:04:17.182Z,99058.00
2023-01-08T15:06:43.825Z,99056.88
2023-01-08T15:09:26.536Z,99050.06
2023-01-08T15:11:59.098Z,99047.00
2023-01-08T15:14:28.750Z,99053.13
2023-01-08T15:16:58.069Z,99045.38
2023-01-08T15:19:27.752Z,99039.19
2023-01-08T15:22:01.752Z,99039.59
2023-01-08T15:24:34.382Z,99042.34
2023-01-08T15:27:09.834Z,99050.38
2023-01-08T15:30:00.071Z,99046.44
2023-01-08T15:32:37.034Z,99045.88
2023-01-08T15:35:18.628Z,99047.47
2023-01-08T15:37:45.630Z,99041.16
2023-01-08T15:40:12.633Z,99040.72
2023-01-08T15:42:57.915Z,99038.41
2023-01-08T15:45:29.797Z,99033.72
2023-01-08T15:47:56.409Z,99031.59
2023-01-08T15:50:25.112Z,99038.25
2023-01-08T15:52:52.073Z,99034.50
2023-01-08T15:55:24.031Z,99037.09
2023-01-08T15:57:50.906Z,99022.84
2023-01-08T16:00:19.989Z,99032.16
2023-01-08T16:02:49.048Z,99036.78
2023-01-08T16:05:20.247Z,99033.31
2023-01-08T16:07:47.239Z,99033.81
2023-01-08T16:10:17.519Z,99025.13
2023-01-08T16:12:44.853Z,99022.50
2023-01-08T16:15:12.754Z,99020.78
2023-01-08T16:17:39.747Z,99021.56
2023-01-08T16:20:07.892Z,99018.00
2023-01-08T16:22:34.826Z,99030.59
2023-01-08T16:25:01.636Z,99026.50
2023-01-08T16:27:30.629Z,99023.13
2023-01-08T16:29:57.430Z,99026.69
2023-01-08T16:32:24.097Z,99020.91
2023-01-08T16:34:50.581Z,99019.53
2023-01-08T16:37:17.281Z,99023.72
2023-01-08T16:39:43.856Z,99019.16
2023-01-08T16:42:11.851Z,99013.81
2023-01-08T16:44:38.683Z,99009.06
2023-01-08T16:47:05.441Z,99004.75
2023-01-08T16:49:33.481Z,99001.78
2023-01-08T16:52:00.292Z,99009.78
2023-01-08T16:54:27.365Z,99002.28
2023-01-08T16:56:54.350Z,99005.69
2023-01-08T16:59:23.575Z,98998.75
2023-01-08T17:01:51.980Z,98990.97
2023-01-08T17:04:18.724Z,98996.25
2023-01-08T17:06:46.656Z,98991.63
2023-01-08T17:09:13.398Z,98989.50
2023-01-08T17:11:40.140Z,98995.47
2023-01-08T17:14:06.864Z,98990.38
2023-01-08T17:16:33.521Z,98980.91
2023-01-08T17:19:00.178Z,98988.00
2023-01-08T17:21:26.835Z,98981.59
2023-01-08T17:23:53.410Z,98984.59
2023-01-08T17:26:19.988Z,98987.19
2023-01-08T17:28:47.280Z,98980.50
2023-01-08T17:31:18.981Z,98970.38
2023-01-08T17:33:50.161Z,98966.53
2023-01-08T17:36:19.320Z,98969.56
2023-01-08T17:38:50.525Z,98977.84
2023-01-08T17:41:36.631Z,98973.84
2023-01-08T17:44:06.650Z,98964.06
2023-01-08T17:46:38.031Z,98968.09
2023-01-08T17:49:04.571Z,98955.22
2023-01-08T17:51:32.434Z,98963.69
2023-01-08T17:53:59.731Z,98963.94
2023-01-08T17:56:26.836Z,98955.72
2023-01-08T17:58:53.503Z,98951.78
2023-01-08T18:01:20.306Z,98948.66
2023-01-08T18:03:47.408Z,98956.34
2023-01-08T18:06:14.192Z,98942.81
2023-01-08T18:08:41.259Z,98947.44
2023-01-08T18:11:09.559Z,98944.53
2023-01-08T18:13:37.613Z,98942.44
2023-01-08T18:16:07.161Z,98948.78
2023-01-08T18:18:34.868Z,98950.94
2023-01-08T18:21:01.557Z,98936.47
2023-01-08T18:23:28.993Z,98925.81
2023-01-08T18:25:55.541Z,98927.72
2023-01-08T18:28:22.239Z,98919.59
2023-01-08T18:30:48.840Z,98915.94
2023-01-08T18:33:16.015Z,98915.78
2023-01-08T18:35:42.633Z,98918.47
2023-01-08T18:38:18.378Z,98921.47
2023-01-08T18:40:45.931Z,98916.81
2023-01-08T18:43:12.967Z,98912.50
2023-01-08T18:45:39.633Z,98906.06
2023-01-08T18:48:07.742Z,98911.19
2023-01-08T18:50:34.758Z,98904.56
2023-01-08T18:53:03.768Z,98901.09
2023-01-08T18:55:30.817Z,98894.47
2023-01-08T18:57:57.895Z,98889.28
2023-01-08T19:00:26.172Z,98898.16
2023-01-08T19:02:53.524Z,98881.81
2023-01-08T19:05:20.256Z,98883.63
2023-01-08T19:07:46.801Z,98873.78
2023-01-08T19:10:14.299Z,98874.63
2023-01-08T19:12:40.982Z,98868.28
2023-01-08T19:15:07.990Z,98861.53
2023-01-08T19:17:34.639Z,98868.75
2023-01-08T19:20:01.349Z,98861.97
2023-01-08T19:22:29.469Z,98856.91
2023-01-08T19:24:56.641Z,98854.22
2023-01-08T19:27:23.966Z,98846.34
2023-01-08T19:29:51.237Z,98856.19
2023-01-08T19:32:17.960Z,98847.66
2023-01-08T19:34:44.603Z,98842.09
2023-01-08T19:37:11.936Z,98848.81
2023-01-08T19:39:38.583Z,98833.44
2023-01-08T19:42:23.629Z,98827.16
2023-01-08T19:44:50.276Z,98823.91
2023-01-08T19:47:16.913Z,98824.63
2023-01-08T19:49:47.504Z,98818.03
2023-01-08T19:52:15.183Z,98816.97
2023-01-08T19:54:42.315Z,98812.97
2023-01-08T19:57:08.944Z,98810.13
2023-01-08T19:59:35.574Z,98809.22
2023-01-08T20:02:02.495Z,98800.97
2023-01-08T20:04:30.911Z,98798.72
2023-01-08T20:06:58.161Z,98786.00
2023-01-08T20:09:24.781Z,98792.03
2023-01-08T20:11:51.438Z,98788.75
2023-01-08T20:14:20.644Z,98789.72
2023-01-08T20:16:47.628Z,98790.72
2023-01-08T20:19:14.198Z,98797.31
2023-01-08T20:21:40.917Z,98791.91
2023-01-08T20:24:10.988Z,98786.13
2023-01-08T20:26:38.301Z,98778.31
2023-01-08T20:29:05.717Z,98772.81
2023-01-08T20:31:34.175Z,98773.59
2023-01-08T20:34:04.547Z,98772.03
2023-01-08T20:36:33.649Z,98777.19
2023-01-08T20:39:06.936Z,98759.69
2023-01-08T20:41:33.513Z,98773.91
2023-01-08T20:44:03.541Z,98758.59
2023-01-08T20:46:30.185Z,98757.75
2023-01-08T20:49:04.441Z,98751.56
2023-01-08T20:51:33.140Z,98751.09
2023-01-08T20:54:00.832Z,98750.03
2023-01-08T20:56:27.728Z,98745.50
2023-01-08T20:58:54.361Z,98742.59
2023-01-08T21:01:23.083Z,98737.59
2023-01-08T21:03:53.489Z,98730.69
2023-01-08T21:06:22.651Z,98731.34
2023-01-08T21:08:51.148Z,98724.41
2023-01-08T21:11:19.319Z,98710.81
2023-01-08T21:13:46.190Z,98716.75
2023-01-08T21:16:16.226Z,98704.84
2023-01-08T21:18:49.074Z,98703.13
2023-01-08T21:21:21.411Z,98707.59
2023-01-08T21:23:48.758Z,98697.84
2023-01-08T21:26:17.257Z,98693.31
2023-01-08T21:28:44.908Z,98690.66
2023-01-08T21:31:28.385Z,98680.31
2023-01-08T21:33:57.497Z,98680.47
2023-01-08T21:36:26.480Z,98680.19
2023-01-08T21:38:53.309Z,98672.06
2023-01-08T21:41:40.441Z,98674.28
2023-01-08T21:44:32.054Z,98670.09
2023-01-08T21:47:00.052Z,98659.03
2023-01-08T21:49:27.645Z,98650.13
2023-01-08T21:52:13.477Z,98649.16
2023-01-08T21:54:40.080Z,98639.38
2023-01-08T21:57:07.311Z,98634.97
2023-01-08T21:59:34.412Z,98635.59
2023-01-08T22:02:01.604Z,98618.47
2023-01-08T22:04:28.302Z,98613.97
2023-01-08T22:06:54.993Z,98617.78
2023-01-08T22:09:21.650Z,98617.06
2023-01-08T22:11:48.221Z,98602.91
2023-01-08T22:14:15.851Z,98598.72
2023-01-08T22:16:42.413Z,98590.84
2023-01-08T22:19:10.312Z,98587.94
2023-01-08T22:21:36.978Z,98596.25
2023-01-08T22:24:03.734Z,98585.38
2023-01-08T22:26:30.389Z,98592.69
2023-01-08T22:28:57.026Z,98585.16
2023-01-08T22:31:23.650Z,98584.13
2023-01-08T22:33:54.192Z,98582.25
2023-01-08T22:36:21.241Z,98583.13
2023-01-08T22:38:47.866Z,98573.19
2023-01-08T22:41:17.760Z,98583.38
2023-01-08T22:43:44.391Z,98581.97
2023-01-08T22:46:13.313Z,98576.66
2023-01-08T22:48:39.871Z,98569.00
2023-01-08T22:51:06.799Z,98566.72
2023-01-08T22:53:33.654Z,98569.22
2023-01-08T22:56:00.306Z,98560.22
2023-01-08T22:58:27.873Z,98567.41
2023-01-08T23:00:54.830Z,98570.59
2023-01-08T23:03:21.391Z,98565.41
2023-01-08T23:05:47.980Z,98564.41
2023-01-08T23:08:14.464Z,98562.25
2023-01-08T23:10:41.149Z,98564.31
2023-01-08T23:13:07.720Z,98551.81
2023-01-08T23:15:34.396Z,98564.31
2023-01-08T23:18:01.013Z,98560.13
2023-01-08T23:20:27.590Z,98564.59
2023-01-08T23:22:54.145Z,98560.75
2023-01-08T23:25:20.876Z,98560.63
2023-01-08T23:27:47.532Z,98558.13
2023-01-08T23:30:14.172Z,98551.81
2023-01-08T23:32:40.804Z,98554.78
2023-01-08T23:35:07.696Z,98550.84
2023-01-08T23:37:34.447Z,98556.00
2023-01-08T23:40:01.113Z,98556.88
2023-01-08T23:42:29.466Z,98559.16
2023-01-08T23:44:56.162Z,98556.09
2023-01-08T23:47:22.728Z,98562.28
2023-01-08T23:49:49.337Z,98558.13
2023-01-08T23:52:15.874Z,98557.59
2023-01-08T23:54:42.492Z,98560.34
2023-01-08T23:57:09.067Z,98562.97
2023-01-08T23:59:35.705Z,98560.88
